Terminal Aerodrome Forecast
Issued by NWS Jackson, KY

Home | Current Version | Previous Version | Text Only | Print | Product List | Glossary On
Versions: 1 2 3 4 5 6 7 8 9 10 11 12 13 14 15 16 17 18 19
000
FTUS43 KJKL 271750
TAFJKL
TAF
KJKL 271750Z 2718/2818 VRB10G20KT 4SM -SHRA BR VCTS SCT015 BKN025CB
      BKN070
     FM271900 VRB06KT P6SM -SHRA VCTS SCT050CB BKN100
     FM280200 20004KT 5SM -SHRA BR VCTS SCT015 OVC050CB
     FM280700 20004KT 5SM -SHRA BR SCT010 OVC025
     FM281000 20004KT 5SM -SHRA SCT003 OVC015
     FM281200 VRB06KT P6SM -SHRA SCT003 OVC008=

USA.gov is the U.S. government's official web portal to all federal, state and local government web resources and services.